createdAt,value
2017-05-24T03:12:35.639Z,0
2017-05-24T03:13:37.060Z,0
2017-05-24T03:14:39.474Z,0
2017-05-24T03:15:41.828Z,0
2017-05-24T03:16:42.283Z,0
2017-05-24T03:17:44.383Z,0
2017-05-24T03:18:45.090Z,0
2017-05-24T03:19:46.551Z,0
2017-05-24T03:20:47.980Z,0
2017-05-24T03:21:50.329Z,0
2017-05-24T03:22:50.793Z,0
2017-05-24T03:23:52.232Z,0
2017-05-24T03:24:53.654Z,0
2017-05-24T03:25:55.078Z,0
2017-05-24T03:26:56.512Z,0
2017-05-24T03:27:57.959Z,0
2017-05-24T03:28:59.382Z,0
2017-05-24T03:30:00.811Z,0
2017-05-24T03:31:02.245Z,0
2017-05-24T03:32:03.679Z,0
2017-05-24T03:33:05.108Z,0
2017-05-24T03:34:06.542Z,0
2017-05-24T03:35:07.972Z,0
2017-05-24T03:36:09.407Z,0
2017-05-24T03:37:10.835Z,0
2017-05-24T03:38:12.263Z,0
2017-05-24T03:39:13.694Z,0
2017-05-24T03:40:15.121Z,0
2017-05-24T03:41:16.552Z,0
2017-05-24T03:42:17.983Z,0
2017-05-24T03:43:19.413Z,0
2017-05-24T03:44:20.845Z,0
2017-05-24T03:45:22.277Z,0
2017-05-24T03:46:23.702Z,0
2017-05-24T03:47:25.127Z,0
2017-05-24T03:48:26.551Z,0
2017-05-24T03:49:27.981Z,5
2017-05-24T03:50:29.413Z,5
2017-05-24T03:51:30.848Z,5
2017-05-24T03:52:32.910Z,5
2017-05-24T03:53:34.348Z,5
2017-05-24T03:54:35.794Z,5
2017-05-24T03:55:37.223Z,5
2017-05-24T03:56:38.647Z,5
2017-05-24T03:57:40.077Z,5
2017-05-24T03:58:41.502Z,10
2017-05-24T03:59:42.934Z,10
2017-05-24T04:00:44.364Z,10
2017-05-24T04:01:45.792Z,10
2017-05-24T04:02:47.223Z,10
2017-05-24T04:03:48.644Z,10
2017-05-24T04:04:50.109Z,10
2017-05-24T04:05:51.543Z,10
2017-05-24T04:06:52.973Z,10
2017-05-24T04:07:54.447Z,10
2017-05-24T04:08:55.874Z,10
2017-05-24T04:09:58.060Z,10
2017-05-24T04:11:01.029Z,10
2017-05-24T04:12:02.459Z,10
2017-05-24T04:13:03.899Z,10
2017-05-24T04:14:06.217Z,10
2017-05-24T04:15:08.273Z,10
2017-05-24T04:16:10.440Z,10
2017-05-24T04:17:12.427Z,15
2017-05-24T04:18:13.856Z,15
2017-05-24T04:19:15.282Z,15
2017-05-24T04:20:16.720Z,15
2017-05-24T04:21:18.155Z,15
2017-05-24T04:22:19.579Z,15
2017-05-24T04:23:21.012Z,15
2017-05-24T04:24:22.441Z,15
2017-05-24T04:25:23.871Z,15
2017-05-24T04:26:25.311Z,15
2017-05-24T04:27:26.743Z,15
2017-05-24T04:28:28.178Z,15
2017-05-24T04:29:29.607Z,15
2017-05-24T04:30:31.043Z,15
2017-05-24T04:31:32.483Z,15
2017-05-24T04:32:33.917Z,15
2017-05-24T04:33:35.354Z,20
2017-05-24T04:34:36.785Z,20
2017-05-24T04:35:38.215Z,20
2017-05-24T04:36:41.307Z,20
2017-05-24T04:37:43.617Z,20
2017-05-24T04:38:45.538Z,20
2017-05-24T04:39:46.972Z,20
2017-05-24T04:40:49.361Z,20
2017-05-24T04:41:50.427Z,20
2017-05-24T04:42:51.859Z,20
2017-05-24T04:43:54.857Z,20
2017-05-24T04:44:56.217Z,20
2017-05-24T04:45:57.651Z,20
2017-05-24T04:47:01.550Z,20
2017-05-24T04:48:02.993Z,20
2017-05-24T04:49:04.423Z,20
2017-05-24T04:50:05.856Z,20
2017-05-24T04:51:07.288Z,25
2017-05-24T04:52:08.736Z,25
2017-05-24T04:53:10.164Z,20
2017-05-24T04:54:11.594Z,25
2017-05-24T04:55:13.039Z,25
2017-05-24T04:56:14.478Z,25
2017-05-24T04:57:15.922Z,25
2017-05-24T04:58:17.346Z,25
2017-05-24T04:59:18.779Z,25
2017-05-24T05:00:20.216Z,25
2017-05-24T05:01:21.662Z,25
2017-05-24T05:02:23.096Z,20
2017-05-24T05:03:24.536Z,20
2017-05-24T05:04:25.972Z,20
2017-05-24T05:05:27.393Z,25
2017-05-24T05:06:28.830Z,25
2017-05-24T05:07:30.265Z,20
2017-05-24T05:08:31.711Z,20
2017-05-24T05:09:33.143Z,25
2017-05-24T05:10:34.574Z,25
2017-05-24T05:11:36.008Z,25
2017-05-24T05:12:37.436Z,25
2017-05-24T05:13:38.862Z,25
2017-05-24T05:14:40.293Z,30
2017-05-24T05:15:41.723Z,25
2017-05-24T05:16:43.150Z,25
2017-05-24T05:17:44.586Z,25
2017-05-24T05:18:46.019Z,25
2017-05-24T05:19:47.449Z,25
2017-05-24T05:20:48.882Z,25
2017-05-24T05:21:50.311Z,30
2017-05-24T05:22:51.738Z,30
2017-05-24T05:23:53.169Z,30
2017-05-24T05:24:54.599Z,30
2017-05-24T05:25:56.027Z,30
2017-05-24T05:26:57.464Z,35
2017-05-24T05:27:58.896Z,30
2017-05-24T05:29:00.325Z,35
2017-05-24T05:30:01.754Z,35
2017-05-24T05:31:04.474Z,35
2017-05-24T05:32:06.553Z,35
2017-05-24T05:33:08.939Z,35
2017-05-24T05:34:10.375Z,35
2017-05-24T05:35:11.805Z,35
2017-05-24T05:36:13.235Z,40
2017-05-24T05:37:14.674Z,40
2017-05-24T05:38:16.106Z,40
2017-05-24T05:39:18.262Z,40
2017-05-24T05:40:19.699Z,40
2017-05-24T05:41:21.137Z,40
2017-05-24T05:42:22.567Z,40
2017-05-24T05:43:24.004Z,40
2017-05-24T05:44:25.435Z,40
2017-05-24T05:45:26.867Z,40
2017-05-24T05:46:28.299Z,40
2017-05-24T05:47:29.725Z,40
2017-05-24T05:48:31.958Z,40
2017-05-24T05:49:33.969Z,40
2017-05-24T05:50:36.103Z,40
2017-05-24T05:51:37.536Z,40
2017-05-24T05:52:38.964Z,40
2017-05-24T05:53:40.398Z,40
2017-05-24T05:54:42.794Z,45
2017-05-24T05:55:44.981Z,45
2017-05-24T05:56:47.236Z,45
2017-05-24T05:57:48.661Z,45
2017-05-24T05:58:50.633Z,45
2017-05-24T05:59:52.070Z,45
2017-05-24T06:00:54.103Z,45
2017-05-24T06:01:55.535Z,45
2017-05-24T06:02:57.820Z,45
2017-05-24T06:03:59.262Z,45
2017-05-24T06:05:01.618Z,45
2017-05-24T06:06:03.888Z,50
2017-05-24T06:07:05.887Z,45
2017-05-24T06:08:07.410Z,40
2017-05-24T06:09:10.195Z,40
2017-05-24T06:10:13.371Z,45
2017-05-24T06:11:14.801Z,45
2017-05-24T06:12:16.888Z,50
2017-05-24T06:13:18.320Z,50
2017-05-24T06:14:19.765Z,50
2017-05-24T06:15:21.192Z,50
2017-05-24T06:16:22.630Z,45
2017-05-24T06:17:24.060Z,45
2017-05-24T06:18:25.490Z,45
2017-05-24T06:19:26.925Z,45
2017-05-24T06:20:28.363Z,45
2017-05-24T06:21:29.791Z,50
2017-05-24T06:22:31.230Z,50
2017-05-24T06:23:32.654Z,50
2017-05-24T06:24:34.086Z,50
2017-05-24T06:25:35.514Z,50
2017-05-24T06:26:36.948Z,50
2017-05-24T06:27:38.384Z,50
2017-05-24T06:28:39.818Z,50
2017-05-24T06:29:41.258Z,50
2017-05-24T06:30:42.688Z,55
2017-05-24T06:31:44.118Z,55
2017-05-24T06:32:45.546Z,55
2017-05-24T06:33:46.985Z,55
2017-05-24T06:34:48.424Z,55
2017-05-24T06:35:49.862Z,60
2017-05-24T06:36:51.300Z,60
2017-05-24T06:37:52.734Z,60
2017-05-24T06:38:54.168Z,60
2017-05-24T06:39:55.595Z,55
2017-05-24T06:40:57.037Z,55
2017-05-24T06:41:58.469Z,50
2017-05-24T06:42:59.909Z,50
2017-05-24T06:44:01.340Z,55
2017-05-24T06:45:02.777Z,55
2017-05-24T06:46:04.213Z,50
2017-05-24T06:47:05.641Z,50
2017-05-24T06:48:07.092Z,50
2017-05-24T06:49:08.508Z,50
2017-05-24T06:50:09.945Z,50
2017-05-24T06:51:11.376Z,50
2017-05-24T06:52:12.812Z,50
2017-05-24T06:53:14.255Z,50
2017-05-24T06:54:15.703Z,50
2017-05-24T06:55:18.117Z,50
2017-05-24T06:56:19.544Z,50
2017-05-24T06:57:21.846Z,50
2017-05-24T06:58:23.287Z,55
2017-05-24T06:59:24.723Z,60
2017-05-24T07:00:26.153Z,60
2017-05-24T07:01:27.693Z,55
2017-05-24T07:02:29.125Z,55
2017-05-24T07:03:30.553Z,55
2017-05-24T07:04:32.054Z,60
2017-05-24T07:05:33.488Z,60
2017-05-24T07:06:34.922Z,55
2017-05-24T07:07:36.352Z,55
2017-05-24T07:08:37.847Z,55
2017-05-24T07:09:39.280Z,55
2017-05-24T07:10:40.717Z,60
2017-05-24T07:11:42.149Z,60
2017-05-24T07:12:43.589Z,65
2017-05-24T07:13:45.808Z,65
2017-05-24T07:14:47.235Z,65
2017-05-24T07:15:48.670Z,65
2017-05-24T07:16:50.121Z,60
2017-05-24T07:17:51.559Z,65
2017-05-24T07:18:52.991Z,70
2017-05-24T07:19:54.426Z,75
2017-05-24T07:20:55.863Z,75
2017-05-24T07:21:57.310Z,80
2017-05-24T07:22:58.742Z,75
2017-05-24T07:24:00.175Z,65
2017-05-24T07:25:01.608Z,60
2017-05-24T07:26:04.469Z,55
2017-05-24T07:27:05.904Z,50
2017-05-24T07:28:07.337Z,45
2017-05-24T07:29:08.775Z,55
2017-05-24T07:30:10.208Z,65
2017-05-24T07:31:11.643Z,65
2017-05-24T07:32:13.082Z,70
2017-05-24T07:33:14.559Z,75
2017-05-24T07:34:16.169Z,80
2017-05-24T07:35:17.603Z,75
2017-05-24T07:36:19.032Z,70
2017-05-24T07:37:20.467Z,70
2017-05-24T07:38:21.911Z,75
2017-05-24T07:39:23.339Z,90
2017-05-24T07:40:24.773Z,85
2017-05-24T07:41:26.209Z,85
2017-05-24T07:42:27.644Z,80
2017-05-24T07:43:29.074Z,80
2017-05-24T07:44:30.512Z,85
2017-05-24T07:45:31.949Z,85
2017-05-24T07:46:33.386Z,80
2017-05-24T07:47:34.820Z,80
2017-05-24T07:48:36.250Z,80
2017-05-24T07:49:37.690Z,80
2017-05-24T07:50:40.538Z,85
2017-05-24T07:51:41.993Z,85
2017-05-24T07:52:43.428Z,85
2017-05-24T07:53:44.864Z,90
2017-05-24T07:54:46.302Z,90
2017-05-24T07:55:47.733Z,95
2017-05-24T07:56:49.169Z,95
2017-05-24T07:57:50.610Z,90
2017-05-24T07:58:52.046Z,85
2017-05-24T07:59:53.477Z,80
2017-05-24T08:00:54.913Z,75
2017-05-24T08:01:56.353Z,75
2017-05-24T08:02:57.791Z,75
2017-05-24T08:03:59.219Z,75
2017-05-24T08:05:00.650Z,75
2017-05-24T08:06:02.085Z,70
2017-05-24T08:07:03.520Z,60
2017-05-24T08:08:04.978Z,50
2017-05-24T08:09:06.411Z,45
2017-05-24T08:10:07.846Z,45
2017-05-24T08:11:09.276Z,45
2017-05-24T08:12:10.711Z,45
2017-05-24T08:13:12.147Z,45
2017-05-24T08:14:13.588Z,45
2017-05-24T08:15:15.019Z,45
2017-05-24T08:16:16.458Z,50
2017-05-24T08:17:17.890Z,45
2017-05-24T08:18:19.323Z,45
2017-05-24T08:19:20.765Z,50
2017-05-24T08:20:22.198Z,55
2017-05-24T08:21:23.636Z,60
2017-05-24T08:22:25.069Z,60
2017-05-24T08:23:26.507Z,70
2017-05-24T08:24:27.939Z,70
2017-05-24T08:25:29.367Z,75
2017-05-24T08:26:30.794Z,75
2017-05-24T08:27:32.227Z,65
2017-05-24T08:28:33.667Z,70
2017-05-24T08:29:35.104Z,70
2017-05-24T08:30:36.547Z,65
2017-05-24T08:31:37.984Z,60
2017-05-24T08:32:39.416Z,55
2017-05-24T08:33:40.859Z,60
2017-05-24T08:34:42.297Z,70
2017-05-24T08:35:43.733Z,75
2017-05-24T08:36:45.168Z,75
2017-05-24T08:37:46.599Z,75
2017-05-24T08:38:48.045Z,75
2017-05-24T08:39:49.471Z,65
2017-05-24T08:40:50.907Z,60
2017-05-24T08:41:52.336Z,65
2017-05-24T08:42:53.775Z,75
2017-05-24T08:43:55.206Z,90
2017-05-24T08:44:56.649Z,100
2017-05-24T08:45:58.085Z,100
2017-05-24T08:46:59.522Z,100
2017-05-24T08:48:00.954Z,90
2017-05-24T08:49:02.400Z,80
2017-05-24T08:50:03.828Z,80
2017-05-24T08:51:05.259Z,85
2017-05-24T08:52:06.696Z,80
2017-05-24T08:53:08.143Z,80
2017-05-24T08:54:09.563Z,85
2017-05-24T08:55:11.001Z,95
2017-05-24T08:56:12.439Z,95
2017-05-24T08:57:13.877Z,90
2017-05-24T08:58:15.315Z,100
2017-05-24T08:59:16.748Z,110
2017-05-24T09:00:18.244Z,120
2017-05-24T09:01:19.686Z,125
2017-05-24T09:02:21.156Z,125
2017-05-24T09:03:22.593Z,115
2017-05-24T09:04:24.029Z,100
2017-05-24T09:05:25.468Z,100
2017-05-24T09:06:26.911Z,110
2017-05-24T09:07:28.356Z,110
2017-05-24T09:08:29.787Z,110
2017-05-24T09:09:31.225Z,125
2017-05-24T09:10:32.656Z,120
2017-05-24T09:11:34.100Z,120
2017-05-24T09:12:35.533Z,120
2017-05-24T09:13:36.971Z,115
2017-05-24T09:14:38.407Z,115
2017-05-24T09:15:39.845Z,115
2017-05-24T09:16:41.276Z,110
2017-05-24T09:17:42.710Z,110
2017-05-24T09:18:44.143Z,110
2017-05-24T09:19:45.592Z,110
2017-05-24T09:20:47.030Z,110
2017-05-24T09:21:48.515Z,115
2017-05-24T09:22:49.954Z,120
2017-05-24T09:23:51.405Z,120
2017-05-24T09:24:52.849Z,115
2017-05-24T09:25:54.284Z,115
2017-05-24T09:26:55.725Z,115
2017-05-24T09:27:57.161Z,115
2017-05-24T09:28:58.601Z,115
2017-05-24T09:30:00.061Z,120
2017-05-24T09:31:01.505Z,125
2017-05-24T09:32:02.931Z,130
2017-05-24T09:33:04.400Z,130
2017-05-24T09:34:05.845Z,130
2017-05-24T09:35:07.289Z,135
2017-05-24T09:36:08.732Z,130
2017-05-24T09:37:10.203Z,130
2017-05-24T09:38:11.643Z,140
2017-05-24T09:39:13.079Z,135
2017-05-24T09:40:14.521Z,145
2017-05-24T09:41:15.960Z,145
2017-05-24T09:42:17.399Z,120
2017-05-24T09:43:18.838Z,105
2017-05-24T09:44:20.291Z,115
2017-05-24T09:45:21.724Z,135
2017-05-24T09:46:23.161Z,140
2017-05-24T09:47:24.592Z,135
2017-05-24T09:48:26.043Z,135
2017-05-24T09:49:27.476Z,140
2017-05-24T09:50:28.931Z,145
2017-05-24T09:51:30.405Z,145
2017-05-24T09:52:31.844Z,160
2017-05-24T09:53:33.279Z,155
2017-05-24T09:54:34.714Z,150
2017-05-24T09:55:36.156Z,145
2017-05-24T09:56:37.587Z,130
2017-05-24T09:57:39.039Z,130
2017-05-24T09:58:40.467Z,130
2017-05-24T09:59:41.907Z,130
2017-05-24T10:00:43.344Z,115
2017-05-24T10:01:44.780Z,110
2017-05-24T10:02:46.224Z,110
2017-05-24T10:03:47.656Z,115
2017-05-24T10:04:49.089Z,120
2017-05-24T10:05:50.547Z,110
2017-05-24T10:06:51.992Z,100
2017-05-24T10:07:53.431Z,100
2017-05-24T10:08:54.861Z,105
2017-05-24T10:09:56.346Z,115
2017-05-24T10:10:57.778Z,115
2017-05-24T10:11:59.220Z,130
2017-05-24T10:13:00.659Z,160
2017-05-24T10:14:02.109Z,175
2017-05-24T10:15:03.546Z,165
2017-05-24T10:16:04.990Z,160
2017-05-24T10:17:06.423Z,165
2017-05-24T10:18:07.864Z,150
2017-05-24T10:19:09.296Z,145
2017-05-24T10:20:10.744Z,140
2017-05-24T10:21:12.189Z,140
2017-05-24T10:22:13.628Z,150
2017-05-24T10:23:15.059Z,155
2017-05-24T10:24:16.519Z,135
2017-05-24T10:25:17.951Z,135
2017-05-24T10:26:19.385Z,125
2017-05-24T10:27:20.820Z,125
2017-05-24T10:28:22.264Z,130
2017-05-24T10:29:23.711Z,130
2017-05-24T10:30:25.156Z,130
2017-05-24T10:31:26.588Z,135
2017-05-24T10:32:28.039Z,135
2017-05-24T10:33:29.474Z,130
2017-05-24T10:34:30.907Z,125
2017-05-24T10:35:32.349Z,120
2017-05-24T10:36:33.852Z,110
2017-05-24T10:37:35.296Z,100
2017-05-24T10:38:36.733Z,100
2017-05-24T10:39:38.175Z,95
2017-05-24T10:40:39.611Z,95
2017-05-24T10:41:41.053Z,85
2017-05-24T10:42:42.495Z,80
2017-05-24T10:43:43.934Z,75
2017-05-24T10:44:45.368Z,70
2017-05-24T10:45:46.812Z,75
2017-05-24T10:46:48.256Z,75
2017-05-24T10:47:49.697Z,75
2017-05-24T10:48:51.135Z,75
2017-05-24T10:49:52.579Z,75
2017-05-24T10:50:54.143Z,75
2017-05-24T10:51:55.591Z,80
2017-05-24T10:52:57.055Z,90
2017-05-24T10:53:58.500Z,95
2017-05-24T10:54:59.944Z,95
2017-05-24T10:56:01.382Z,80
2017-05-24T10:57:02.824Z,85
2017-05-24T10:58:04.260Z,90
2017-05-24T10:59:05.697Z,90
2017-05-24T11:00:07.143Z,80
2017-05-24T11:01:08.580Z,65
2017-05-24T11:02:10.062Z,60
2017-05-24T11:03:11.498Z,65
2017-05-24T11:04:12.937Z,65
2017-05-24T11:05:14.381Z,65
2017-05-24T11:06:15.814Z,60
2017-05-24T11:07:17.263Z,55
2017-05-24T11:08:18.699Z,60
2017-05-24T11:09:20.155Z,60
2017-05-24T11:10:21.597Z,70
2017-05-24T11:11:23.031Z,85
2017-05-24T11:12:24.471Z,80
2017-05-24T11:13:25.917Z,80
2017-05-24T11:14:27.357Z,90
2017-05-24T11:15:28.799Z,95
2017-05-24T11:16:30.231Z,90
2017-05-24T11:17:31.666Z,85
2017-05-24T11:18:33.100Z,90
2017-05-24T11:19:34.535Z,90
2017-05-24T11:20:35.977Z,75
2017-05-24T11:21:37.409Z,65
2017-05-24T11:22:38.854Z,65
2017-05-24T11:23:40.357Z,60
2017-05-24T11:24:41.798Z,65
2017-05-24T11:25:43.246Z,70
2017-05-24T11:26:44.681Z,65
2017-05-24T11:27:46.132Z,55
2017-05-24T11:28:47.567Z,50
2017-05-24T11:29:49.007Z,60
2017-05-24T11:30:50.445Z,60
2017-05-24T11:31:51.931Z,55
2017-05-24T11:32:53.356Z,55
2017-05-24T11:33:54.788Z,50
2017-05-24T11:34:56.228Z,45
2017-05-24T11:35:57.661Z,45
2017-05-24T11:36:59.109Z,40
2017-05-24T11:38:00.555Z,40
2017-05-24T11:39:01.987Z,40
2017-05-24T11:40:03.425Z,35
2017-05-24T11:41:04.859Z,30
2017-05-24T11:42:06.314Z,30
2017-05-24T11:43:07.752Z,30
2017-05-24T11:44:09.181Z,25
2017-05-24T11:45:10.613Z,30
2017-05-24T11:46:12.082Z,35
2017-05-24T11:47:13.515Z,40
2017-05-24T11:48:14.953Z,35
2017-05-24T11:49:16.395Z,35
2017-05-24T11:50:17.830Z,35
2017-05-24T11:51:19.291Z,40
2017-05-24T11:52:20.723Z,35
2017-05-24T11:53:22.164Z,35
2017-05-24T11:54:23.600Z,40
2017-05-24T11:55:25.042Z,45
2017-05-24T11:56:26.553Z,40
2017-05-24T11:57:27.996Z,35
2017-05-24T11:58:29.433Z,35
2017-05-24T11:59:30.864Z,30
2017-05-24T12:00:32.300Z,30
2017-05-24T12:01:33.744Z,30
2017-05-24T12:02:35.177Z,25
2017-05-24T12:03:36.614Z,30
2017-05-24T12:04:38.044Z,30
2017-05-24T12:05:39.489Z,30
2017-05-24T12:06:40.928Z,35
2017-05-24T12:07:42.443Z,35
2017-05-24T12:08:43.876Z,35
2017-05-24T12:09:45.317Z,35
2017-05-24T12:10:46.753Z,40
2017-05-24T12:11:48.196Z,45
2017-05-24T12:12:49.642Z,65
2017-05-24T12:13:51.087Z,70
2017-05-24T12:14:52.520Z,70
2017-05-24T12:15:55.533Z,70
2017-05-24T12:16:56.044Z,70
2017-05-24T12:17:57.489Z,70
2017-05-24T12:18:58.924Z,75
2017-05-24T12:20:00.362Z,75
2017-05-24T12:21:01.799Z,75
2017-05-24T12:22:03.236Z,85
2017-05-24T12:23:04.671Z,75
2017-05-24T12:24:06.105Z,70
2017-05-24T12:25:07.541Z,65
2017-05-24T12:26:08.975Z,60
2017-05-24T12:27:10.414Z,60
2017-05-24T12:28:11.858Z,55
2017-05-24T12:29:13.780Z,55
2017-05-24T12:30:15.214Z,40
2017-05-24T12:31:16.657Z,35
2017-05-24T12:32:18.099Z,35
2017-05-24T12:33:19.542Z,40
2017-05-24T12:34:20.971Z,40
2017-05-24T12:35:22.430Z,40
2017-05-24T12:36:23.868Z,45
2017-05-24T12:37:25.310Z,50
2017-05-24T12:38:26.741Z,50
2017-05-24T12:39:28.189Z,55
2017-05-24T12:40:29.625Z,55
2017-05-24T12:41:31.064Z,65
2017-05-24T12:42:32.510Z,70
2017-05-24T12:43:33.945Z,65
2017-05-24T12:44:35.382Z,60
2017-05-24T12:45:36.813Z,55
2017-05-24T12:46:38.256Z,65
2017-05-24T12:47:39.726Z,65
2017-05-24T12:48:41.160Z,65
2017-05-24T12:49:42.624Z,60
2017-05-24T12:50:44.067Z,60
2017-05-24T12:51:45.509Z,65
2017-05-24T12:52:46.951Z,70
2017-05-24T12:53:48.381Z,75
2017-05-24T12:54:49.823Z,70
2017-05-24T12:55:51.259Z,65
2017-05-24T12:56:52.705Z,65
2017-05-24T12:57:54.190Z,70
2017-05-24T12:58:55.631Z,80
2017-05-24T12:59:57.071Z,75
2017-05-24T13:00:58.509Z,60
2017-05-24T13:01:59.957Z,55
2017-05-24T13:03:01.401Z,50
2017-05-24T13:04:02.837Z,55
2017-05-24T13:05:04.271Z,70
2017-05-24T13:06:05.714Z,75
2017-05-24T13:07:08.073Z,85
2017-05-24T13:08:09.522Z,90
2017-05-24T13:09:10.961Z,105
2017-05-24T13:10:12.404Z,120
2017-05-24T13:11:13.948Z,140
2017-05-24T13:12:15.376Z,135
2017-05-24T13:13:16.820Z,155
2017-05-24T13:14:18.284Z,155
2017-05-24T13:15:19.719Z,140
2017-05-24T13:16:21.155Z,155
2017-05-24T13:17:22.597Z,145
2017-05-24T13:18:24.996Z,150
2017-05-24T13:19:26.433Z,170
2017-05-24T13:20:27.911Z,165
2017-05-24T13:21:29.349Z,195
2017-05-24T13:22:30.783Z,230
2017-05-24T13:23:32.221Z,220
2017-05-24T13:24:33.662Z,215
2017-05-24T13:25:35.095Z,220
2017-05-24T13:26:36.532Z,220
2017-05-24T13:27:37.977Z,230
2017-05-24T13:28:39.413Z,190
2017-05-24T13:29:40.861Z,170
2017-05-24T13:30:42.385Z,170
2017-05-24T13:31:43.837Z,195
2017-05-24T13:32:45.274Z,225
2017-05-24T13:33:46.725Z,220
2017-05-24T13:34:48.163Z,160
2017-05-24T13:35:49.598Z,140
2017-05-24T13:36:51.039Z,145
2017-05-24T13:37:52.522Z,150
2017-05-24T13:38:53.984Z,130
2017-05-24T13:39:55.425Z,110
2017-05-24T13:40:56.868Z,105
2017-05-24T13:41:58.303Z,85
2017-05-24T13:42:59.737Z,75
2017-05-24T13:44:01.179Z,70
2017-05-24T13:45:02.618Z,90
2017-05-24T13:46:04.058Z,90
2017-05-24T13:47:05.511Z,65
2017-05-24T13:48:06.952Z,60
2017-05-24T13:49:08.399Z,90
2017-05-24T13:50:10.433Z,85
2017-05-24T13:51:11.878Z,75
2017-05-24T13:52:13.309Z,75
2017-05-24T13:53:14.769Z,75
2017-05-24T13:54:16.205Z,95
2017-05-24T13:55:17.691Z,120
2017-05-24T13:56:19.089Z,105
2017-05-24T13:57:20.539Z,100
2017-05-24T13:58:21.975Z,125
2017-05-24T13:59:23.415Z,105
2017-05-24T14:00:24.853Z,90
2017-05-24T14:01:26.292Z,145
2017-05-24T14:02:27.733Z,165
2017-05-24T14:03:29.167Z,185
2017-05-24T14:04:30.602Z,190
2017-05-24T14:05:32.043Z,155
2017-05-24T14:06:33.480Z,165
2017-05-24T14:07:34.913Z,180
2017-05-24T14:08:36.354Z,175
2017-05-24T14:09:37.796Z,170
2017-05-24T14:10:39.234Z,135
2017-05-24T14:11:40.677Z,140
2017-05-24T14:12:42.111Z,125
2017-05-24T14:13:43.554Z,100
2017-05-24T14:14:44.988Z,100
2017-05-24T14:15:46.434Z,95
2017-05-24T14:16:47.869Z,90
2017-05-24T14:17:49.303Z,85
2017-05-24T14:18:50.733Z,90
2017-05-24T14:19:52.171Z,100
2017-05-24T14:20:53.609Z,105
2017-05-24T14:21:55.055Z,105
2017-05-24T14:22:56.492Z,55
2017-05-24T14:23:57.926Z,65
2017-05-24T14:24:59.371Z,60
2017-05-24T14:26:00.808Z,65
2017-05-24T14:27:02.255Z,105
2017-05-24T14:28:03.687Z,110
2017-05-24T14:29:05.122Z,130
2017-05-24T14:30:06.554Z,145
2017-05-24T14:31:08.000Z,175
2017-05-24T14:32:09.434Z,185
2017-05-24T14:33:10.880Z,165
2017-05-24T14:34:12.309Z,160
2017-05-24T14:35:13.748Z,130
2017-05-24T14:36:15.182Z,105
2017-05-24T14:37:16.619Z,95
2017-05-24T14:38:18.063Z,95
2017-05-24T14:39:19.502Z,90
2017-05-24T14:40:20.929Z,85
2017-05-24T14:41:22.370Z,80
2017-05-24T14:42:23.811Z,50
2017-05-24T14:43:25.245Z,35
2017-05-24T14:44:27.603Z,30
2017-05-24T14:45:29.044Z,25
2017-05-24T14:46:30.487Z,25
2017-05-24T14:47:31.919Z,25
2017-05-24T14:48:33.369Z,30
2017-05-24T14:49:34.812Z,35
2017-05-24T14:50:36.239Z,35
2017-05-24T14:51:37.682Z,30
2017-05-24T14:52:39.113Z,35
2017-05-24T14:53:40.579Z,30
2017-05-24T14:54:42.043Z,25
2017-05-24T14:55:43.454Z,45
2017-05-24T14:56:44.895Z,65
2017-05-24T14:57:46.334Z,100
2017-05-24T14:58:47.772Z,120
2017-05-24T14:59:49.219Z,105
2017-05-24T15:00:50.650Z,95
2017-05-24T15:01:52.090Z,105
2017-05-24T15:02:53.521Z,130
2017-05-24T15:03:54.961Z,150
2017-05-24T15:04:56.407Z,170
2017-05-24T15:05:57.843Z,170
2017-05-24T15:06:59.279Z,155
2017-05-24T15:08:00.718Z,155
2017-05-24T15:09:02.156Z,160
2017-05-24T15:10:03.598Z,155
2017-05-24T15:11:05.038Z,160
2017-05-24T15:12:06.472Z,160
2017-05-24T15:13:07.909Z,150
2017-05-24T15:14:09.345Z,150
2017-05-24T15:15:10.780Z,150
2017-05-24T15:16:12.702Z,145
2017-05-24T15:17:14.144Z,150
2017-05-24T15:18:15.582Z,150
2017-05-24T15:19:17.025Z,160
2017-05-24T15:20:18.471Z,150
2017-05-24T15:21:19.913Z,135
2017-05-24T15:22:21.343Z,135
2017-05-24T15:23:22.786Z,135
2017-05-24T15:24:24.225Z,140
2017-05-24T15:25:25.676Z,145
2017-05-24T15:26:27.103Z,135
2017-05-24T15:27:28.544Z,125
2017-05-24T15:28:29.980Z,130
2017-05-24T15:29:31.419Z,125
2017-05-24T15:30:32.855Z,115
2017-05-24T15:31:34.297Z,20
2017-05-24T15:32:35.735Z,30
2017-05-24T15:33:37.174Z,95
2017-05-24T15:34:38.611Z,80
2017-05-24T15:35:40.049Z,75
2017-05-24T15:36:41.487Z,80
2017-05-24T15:37:42.925Z,80
2017-05-24T15:38:44.359Z,80
2017-05-24T15:39:45.804Z,70
2017-05-24T15:40:47.242Z,75
2017-05-24T15:41:48.682Z,25
2017-05-24T15:42:50.117Z,15
2017-05-24T15:43:51.551Z,20
2017-05-24T15:44:52.989Z,20
2017-05-24T15:45:54.439Z,50
2017-05-24T15:46:55.881Z,20
2017-05-24T15:47:57.316Z,105
2017-05-24T15:48:58.753Z,105
2017-05-24T15:50:00.190Z,100
2017-05-24T15:51:01.645Z,100
2017-05-24T15:52:03.080Z,100
2017-05-24T15:53:05.242Z,115
2017-05-24T15:54:06.714Z,115
2017-05-24T15:55:08.207Z,105
2017-05-24T15:56:09.595Z,80
2017-05-24T15:57:11.037Z,70
2017-05-24T15:58:12.477Z,30
2017-05-24T15:59:13.913Z,90
2017-05-24T16:00:15.345Z,95
2017-05-24T16:01:16.789Z,100
2017-05-24T16:02:18.239Z,105
2017-05-24T16:03:19.685Z,110
2017-05-24T16:04:21.132Z,115
2017-05-24T16:05:22.687Z,110
2017-05-24T16:06:24.127Z,110
2017-05-24T16:07:25.567Z,105
2017-05-24T16:08:27.005Z,110
2017-05-24T16:09:28.453Z,110
2017-05-24T16:10:29.875Z,105
2017-05-24T16:11:31.317Z,100
2017-05-24T16:12:32.757Z,95
2017-05-24T16:13:34.191Z,95
2017-05-24T16:14:35.633Z,95
2017-05-24T16:15:37.069Z,100
2017-05-24T16:16:38.507Z,95
2017-05-24T16:17:39.946Z,100
2017-05-24T16:18:41.382Z,100
2017-05-24T16:19:42.826Z,90
2017-05-24T16:20:44.255Z,95
2017-05-24T16:21:45.696Z,85
2017-05-24T16:22:47.140Z,85
2017-05-24T16:23:48.574Z,75
2017-05-24T16:24:50.007Z,70
2017-05-24T16:25:51.458Z,65
2017-05-24T16:26:52.964Z,65
2017-05-24T16:27:54.342Z,70
2017-05-24T16:28:55.770Z,80
2017-05-24T16:29:57.207Z,70
2017-05-24T16:30:58.644Z,65
2017-05-24T16:32:00.092Z,65
2017-05-24T16:33:01.536Z,65
2017-05-24T16:34:02.984Z,60
2017-05-24T16:35:04.411Z,55
2017-05-24T16:36:05.860Z,50
2017-05-24T16:37:07.301Z,45
2017-05-24T16:38:08.745Z,40
2017-05-24T16:39:10.173Z,40
2017-05-24T16:40:11.614Z,45
2017-05-24T16:41:13.038Z,65
2017-05-24T16:42:14.470Z,80
2017-05-24T16:43:15.913Z,80
2017-05-24T16:44:17.355Z,70
2017-05-24T16:45:18.788Z,70
2017-05-24T16:46:20.220Z,65
2017-05-24T16:47:21.660Z,65
2017-05-24T16:48:23.102Z,65
2017-05-24T16:49:24.545Z,65
2017-05-24T16:50:25.982Z,65
2017-05-24T16:51:27.441Z,60
2017-05-24T16:52:28.898Z,60
2017-05-24T16:53:30.335Z,60
2017-05-24T16:54:31.769Z,60
2017-05-24T16:55:33.219Z,55
2017-05-24T16:56:34.648Z,50
2017-05-24T16:57:36.088Z,50
2017-05-24T16:58:37.523Z,50
2017-05-24T16:59:38.956Z,50
2017-05-24T17:00:40.392Z,50
2017-05-24T17:01:41.829Z,25
2017-05-24T17:02:44.155Z,45
2017-05-24T17:03:45.602Z,50
2017-05-24T17:04:47.041Z,65
2017-05-24T17:05:48.481Z,70
2017-05-24T17:06:49.917Z,75
2017-05-24T17:07:51.358Z,75
2017-05-24T17:08:52.795Z,70
2017-05-24T17:09:54.235Z,60
2017-05-24T17:10:55.731Z,55
2017-05-24T17:11:57.165Z,50
2017-05-24T17:12:58.612Z,50
2017-05-24T17:14:00.058Z,50
2017-05-24T17:15:01.496Z,45
2017-05-24T17:16:02.972Z,40
2017-05-24T17:17:04.379Z,40
2017-05-24T17:18:05.814Z,35
2017-05-24T17:19:07.248Z,30
2017-05-24T17:20:08.683Z,25
2017-05-24T17:21:10.124Z,25
2017-05-24T17:22:11.548Z,30
2017-05-24T17:23:12.994Z,30
2017-05-24T17:24:14.431Z,30
2017-05-24T17:25:15.898Z,30
2017-05-24T17:26:17.333Z,30
2017-05-24T17:27:18.771Z,35
2017-05-24T17:28:20.207Z,40
2017-05-24T17:29:21.666Z,45
2017-05-24T17:30:23.099Z,45
2017-05-24T17:31:24.548Z,50
2017-05-24T17:32:26.072Z,50
2017-05-24T17:33:27.509Z,50
2017-05-24T17:34:28.944Z,45
2017-05-24T17:35:30.386Z,45
2017-05-24T17:36:31.826Z,45
2017-05-24T17:37:33.263Z,45
2017-05-24T17:38:34.705Z,45
2017-05-24T17:39:36.145Z,40
2017-05-24T17:40:37.586Z,40
2017-05-24T17:41:39.018Z,40
2017-05-24T17:42:40.460Z,40